Cleveland, Ohio
Traffic Map
Current Weather Conditions
Cleveland, Ohio
Scattered Clouds
Scattered Clouds
18°
Feels Like: 18°
Wind Chill: 18° Ceiling: Unl
Heat Index: 18° Visibility: 10mi
Dew Point: 12° Wind: 6mph
Humidity: 68% Direction: 220° (SW)
Pressure: 29.87in Gusts: 0mph
Raw Report DataKBKL 300053Z 22005KT 10SM FEW085 SCT120 18/12 A2987 RMK AO2 SLP114 T01830122
Traffic Incident Summary
Active as of:
Severity:
Category:
InformationThere was an issue retrieving the traffic information for this location. Please try a different location or try again shortly.
Advertisements
Track Severe Weather on mobile